Time;durP1;ratioP1;P1;durP2;ratioP2;P2;SDS_P1;SDS_P2;PMS_P1;PMS_P2;Temp;Humidity;BMP_temperature;BMP_pressure;BME280_temperature;BME280_humidity;BME280_pressure;Samples;Min_cycle;Max_cycle;Signal;HPM_P1;HPM_P2
2022/12/19 00:01:25;;;;;;;43.33;13.60;;;;;;;-2.75;84.56;101358.48;1606379;88;21101;-76
2022/12/19 00:03:59;;;;;;;38.63;13.38;;;;;;;-2.76;84.52;101358.00;1615613;89;21028;-76
2022/12/19 00:06:27;;;;;;;43.08;15.53;;;;;;;-2.78;84.59;101364.27;1609116;88;21538;-76
2022/12/19 00:08:57;;;;;;;33.38;12.45;;;;;;;-2.78;85.18;101374.84;1613124;89;20997;-76
2022/12/19 00:11:26;;;;;;;43.38;14.65;;;;;;;-2.78;84.58;101373.57;1613307;88;21025;-76
2022/12/19 00:13:53;;;;;;;41.13;14.13;;;;;;;-2.78;84.43;101363.39;1609868;89;21029;-77
2022/12/19 00:16:23;;;;;;;37.20;13.53;;;;;;;-2.77;84.45;101372.37;1611914;88;21036;-76
2022/12/19 00:18:52;;;;;;;43.65;15.80;;;;;;;-2.80;84.60;101370.52;1603720;88;21470;-76
2022/12/19 00:21:22;;;;;;;32.88;14.28;;;;;;;-2.77;84.84;101368.95;1610464;88;21898;-77
2022/12/19 00:23:50;;;;;;;30.68;11.65;;;;;;;-2.76;84.62;101372.00;1606252;89;21044;-76
2022/12/19 00:26:21;;;;;;;39.55;13.05;;;;;;;-2.77;85.20;101367.28;1610618;88;21366;-76
2022/12/19 00:28:51;;;;;;;37.45;14.70;;;;;;;-2.76;84.77;101368.19;1601569;89;21044;-76
2022/12/19 00:31:20;;;;;;;50.48;15.78;;;;;;;-2.76;84.75;101372.00;1612358;88;21029;-76
2022/12/19 00:33:48;;;;;;;41.42;13.88;;;;;;;-2.79;84.88;101377.76;1606720;89;20985;-76
2022/12/19 00:36:24;;;;;;;34.55;13.13;;;;;;;-2.80;84.60;101373.47;1610576;89;21568;-76
2022/12/19 00:38:53;;;;;;;36.20;14.90;;;;;;;-2.81;84.14;101380.59;1606402;88;21072;-76
2022/12/19 00:41:33;;;;;;;42.62;14.58;;;;;;;-2.86;84.33;101381.98;1609939;89;21048;-76
2022/12/19 00:44:04;;;;;;;45.35;14.83;;;;;;;-2.87;84.54;101381.47;1607902;88;21958;-76
2022/12/19 00:46:33;;;;;;;38.55;13.65;;;;;;;-2.92;84.92;101381.17;1609940;89;20993;-76
2022/12/19 00:49:01;;;;;;;45.58;14.28;;;;;;;-2.94;84.58;101384.41;1610091;87;21036;-76
2022/12/19 00:51:32;;;;;;;40.92;13.65;;;;;;;-2.94;84.62;101388.23;1587604;88;21514;-76
2022/12/19 00:53:59;;;;;;;46.85;16.52;;;;;;;-2.95;84.79;101388.59;1609832;88;21068;-76
2022/12/19 00:56:30;;;;;;;37.08;14.70;;;;;;;-2.93;84.97;101388.31;1611578;89;21973;-76
2022/12/19 00:58:57;;;;;;;42.88;14.58;;;;;;;-2.97;84.33;101387.62;1608928;88;21029;-76
2022/12/19 01:01:29;;;;;;;36.75;13.90;;;;;;;-3.02;84.54;101379.69;1605818;89;21041;-76
2022/12/19 01:03:58;;;;;;;30.57;12.37;;;;;;;-3.01;84.57;101378.89;1611035;87;21041;-76
2022/12/19 01:06:25;;;;;;;40.90;13.90;;;;;;;-3.01;84.68;101377.62;1593502;90;21101;-77
2022/12/19 01:08:52;;;;;;;38.95;14.07;;;;;;;-3.01;84.80;101373.80;1591892;90;21060;-76
2022/12/19 01:14:06;;;;;;;31.75;12.40;;;;;;;-3.01;85.22;101367.44;1589851;90;21077;-76
2022/12/19 01:16:32;;;;;;;31.97;12.93;;;;;;;-3.00;84.96;101367.95;1589738;90;21076;-77
2022/12/19 01:18:59;;;;;;;40.30;14.18;;;;;;;-3.01;85.08;101371.25;1589355;90;21117;-76
2022/12/19 01:21:26;;;;;;;39.60;13.78;;;;;;;-3.03;84.94;101365.18;1589464;89;21033;-76
2022/12/19 01:23:52;;;;;;;42.83;15.50;;;;;;;-3.04;85.05;101365.98;1589213;90;21066;-76
2022/12/19 01:26:19;;;;;;;44.58;16.40;;;;;;;-3.07;84.78;101361.95;1583820;89;21061;-76
2022/12/19 01:28:47;;;;;;;43.40;15.80;;;;;;;-3.11;84.65;101366.34;1614451;89;21092;-77
2022/12/19 01:31:13;;;;;;;54.33;17.25;;;;;;;-3.15;84.73;101368.59;1614525;89;22016;-76
2022/12/19 01:33:40;;;;;;;36.95;13.00;;;;;;;-3.16;84.54;101372.81;1614450;89;21068;-76
2022/12/19 01:36:08;;;;;;;41.60;15.58;;;;;;;-3.20;84.87;101381.89;1614374;89;21041;-76
2022/12/19 01:38:35;;;;;;;51.50;17.12;;;;;;;-3.23;84.75;101384.62;1615699;89;21041;-76
2022/12/19 01:41:03;;;;;;;43.55;15.83;;;;;;;-3.20;85.35;101381.02;1615727;88;21533;-76
2022/12/19 01:43:34;;;;;;;44.00;15.53;;;;;;;-3.22;85.25;101383.45;1595671;89;21029;-76
2022/12/19 01:46:03;;;;;;;37.63;14.40;;;;;;;-3.22;85.07;101382.18;1612872;89;21061;-76
2022/12/19 01:48:34;;;;;;;46.20;15.05;;;;;;;-3.20;85.35;101382.30;1615691;88;21144;-76
2022/12/19 01:51:06;;;;;;;38.65;14.15;;;;;;;-3.20;84.97;101378.08;1615752;88;21022;-76
2022/12/19 01:53:43;;;;;;;41.10;13.25;;;;;;;-3.20;85.10;101374.66;1614618;89;21081;-77
2022/12/19 01:56:10;;;;;;;38.55;14.28;;;;;;;-3.22;84.60;101381.31;1615340;89;21065;-76
2022/12/19 01:58:41;;;;;;;51.77;15.95;;;;;;;-3.24;85.01;101368.48;1615823;88;20989;-76
2022/12/19 02:01:08;;;;;;;39.90;13.98;;;;;;;-3.23;84.95;101378.25;1615656;89;21557;-76
2022/12/19 02:03:37;;;;;;;42.53;14.80;;;;;;;-3.23;84.42;101379.13;1611040;87;21081;-76
2022/12/19 02:06:06;;;;;;;36.40;15.32;;;;;;;-3.30;85.15;101374.80;1609167;89;21954;-76
2022/12/19 02:08:34;;;;;;;37.70;13.75;;;;;;;-3.33;84.74;101370.39;1609207;89;21006;-76
2022/12/19 02:11:01;;;;;;;49.10;15.50;;;;;;;-3.32;84.77;101377.62;1609204;88;20974;-76
2022/12/19 02:13:28;;;;;;;47.05;15.20;;;;;;;-3.30;84.99;101369.70;1587598;89;21013;-76
2022/12/19 02:16:30;;;;;;;44.67;15.25;;;;;;;-3.30;85.02;101369.70;1609096;88;21013;-76
2022/12/19 02:19:05;;;;;;;46.92;16.32;;;;;;;-3.34;84.74;101371.19;1608993;89;21484;-76
2022/12/19 02:21:46;;;;;;;53.38;17.10;;;;;;;-3.44;85.27;101370.95;1608206;89;21543;-76
2022/12/19 02:24:38;;;;;;;38.98;14.47;;;;;;;-3.53;85.46;101366.51;1609158;88;21065;-76
2022/12/19 02:27:41;;;;;;;43.42;16.97;;;;;;;-3.56;85.02;101368.86;1609131;89;21826;-76
2022/12/19 02:30:19;;;;;;;43.02;15.45;;;;;;;-3.63;85.81;101361.58;1607756;89;21590;-76
2022/12/19 02:33:18;;;;;;;39.40;15.38;;;;;;;-3.65;85.86;101356.78;1607362;89;21006;-76
2022/12/19 02:35:55;;;;;;;44.00;13.50;;;;;;;-3.68;85.88;101360.38;1605624;89;21530;-76
2022/12/19 02:38:43;;;;;;;36.45;12.53;;;;;;;-3.70;86.08;101360.29;1584568;89;21013;-76
2022/12/19 02:41:21;;;;;;;41.25;13.20;;;;;;;-3.75;86.23;101365.44;1582139;89;20990;-76
2022/12/19 02:43:51;;;;;;;43.58;14.90;;;;;;;-3.75;85.70;101353.99;1599591;89;21033;-77
2022/12/19 02:46:19;;;;;;;35.95;13.35;;;;;;;-3.76;85.75;101357.70;1599535;89;20982;-76
2022/12/19 02:48:46;;;;;;;32.95;12.75;;;;;;;-3.75;85.61;101360.75;1597082;88;21049;-76
2022/12/19 02:51:14;;;;;;;35.13;12.47;;;;;;;-3.74;86.15;101362.13;1577690;89;21482;-76
2022/12/19 02:53:42;;;;;;;31.02;14.90;;;;;;;-3.72;85.74;101358.39;1603665;89;20993;-76
2022/12/19 02:56:46;;;;;;;35.75;15.25;;;;;;;-3.75;85.85;101367.10;1592146;89;21062;-76
2022/12/19 02:59:36;;;;;;;35.95;13.15;;;;;;;-3.75;86.12;101359.48;1595574;89;20970;-76
2022/12/19 03:02:23;;;;;;;35.38;13.32;;;;;;;-3.76;85.75;101362.78;1604945;89;21038;-76
2022/12/19 03:05:06;;;;;;;43.85;14.68;;;;;;;-3.80;85.38;101367.67;1535750;91;21017;-76
2022/12/19 03:08:17;;;;;;;39.03;14.50;;;;;;;-3.83;85.58;101364.91;1561057;90;21033;-76
2022/12/19 03:11:07;;;;;;;34.65;14.00;;;;;;;-3.83;85.87;101369.11;1547780;91;21080;-76
2022/12/19 03:13:54;;;;;;;32.95;12.18;;;;;;;-3.90;86.46;101364.37;1554388;90;22174;-76
2022/12/19 03:16:21;;;;;;;40.63;13.98;;;;;;;-3.94;86.46;101365.84;1549187;91;21047;-77
2022/12/19 03:18:48;;;;;;;53.20;15.68;;;;;;;-4.00;86.40;101363.75;1555976;91;21042;-77
2022/12/19 03:21:26;;;;;;;35.50;13.45;;;;;;;-3.99;86.27;101370.98;1568006;91;21103;-76
2022/12/19 03:23:55;;;;;;;35.38;13.80;;;;;;;-3.97;86.29;101372.36;1566980;90;21515;-76
2022/12/19 03:26:27;;;;;;;43.95;17.27;;;;;;;-3.98;86.40;101372.72;1554290;91;21587;-76
2022/12/19 03:29:13;;;;;;;42.93;15.48;;;;;;;-3.98;86.40;101372.72;1543105;91;21029;-76
2022/12/19 03:31:42;;;;;;;35.63;13.28;;;;;;;-4.01;86.40;101378.88;1555388;91;21005;-76
2022/12/19 03:34:33;;;;;;;31.25;12.43;;;;;;;-4.02;86.34;101372.92;1565649;91;21498;-76
2022/12/19 03:37:04;;;;;;;40.17;13.70;;;;;;;-4.07;86.16;101377.19;1556890;91;20981;-76
2022/12/19 03:39:32;;;;;;;37.35;12.73;;;;;;;-4.08;85.86;101383.02;1565148;91;20996;-76
2022/12/19 03:44:48;;;;;;;40.58;14.78;;;;;;;-4.15;86.25;101386.80;1565351;91;20998;-76
2022/12/19 03:47:37;;;;;;;29.40;12.73;;;;;;;-4.13;86.57;101394.14;1568802;91;21032;-76
2022/12/19 03:50:06;;;;;;;43.28;12.98;;;;;;;-4.13;86.34;101395.81;1560776;91;21895;-75
2022/12/19 03:52:52;;;;;;;40.85;13.75;;;;;;;-4.13;86.62;101404.30;1568523;91;21060;-76
2022/12/19 03:55:24;;;;;;;39.30;13.48;;;;;;;-4.09;86.78;101397.80;1555764;91;21033;-76
2022/12/19 03:58:08;;;;;;;33.98;12.47;;;;;;;-4.05;86.50;101403.19;1549996;91;21868;-76
2022/12/19 04:00:37;;;;;;;27.87;11.95;;;;;;;-4.06;86.54;101390.00;1549642;91;21538;-77
2022/12/19 04:03:05;;;;;;;33.98;11.60;;;;;;;-4.06;86.12;101406.52;1551410;92;21076;-76
2022/12/19 04:05:32;;;;;;;31.90;11.15;;;;;;;-4.08;86.12;101408.06;1618375;89;21029;-76
2022/12/19 04:08:04;;;;;;;37.38;12.73;;;;;;;-4.08;86.06;101406.80;1618430;88;21059;-76
2022/12/19 04:10:35;;;;;;;39.85;13.65;;;;;;;-4.14;86.17;101406.34;1618388;88;21032;-76
2022/12/19 04:13:07;;;;;;;34.98;13.15;;;;;;;-4.14;86.64;101402.92;1618284;88;21021;-76
2022/12/19 04:16:04;;;;;;;28.52;11.38;;;;;;;-4.14;85.99;101408.88;1618241;88;21071;-77
2022/12/19 04:18:33;;;;;;;46.42;15.15;;;;;;;-4.18;86.01;101409.44;1614630;89;21025;-77
2022/12/19 04:21:05;;;;;;;42.73;15.90;;;;;;;-4.17;86.27;101411.22;1618298;88;21001;-77
2022/12/19 04:23:37;;;;;;;42.45;15.75;;;;;;;-4.24;86.66;101406.09;1618163;88;21049;-76
2022/12/19 04:26:05;;;;;;;45.10;16.17;;;;;;;-4.25;86.30;101418.68;1616856;88;21060;-76
2022/12/19 04:28:43;;;;;;;44.65;15.25;;;;;;;-4.24;86.56;101413.72;1616948;88;21112;-76
2022/12/19 04:31:13;;;;;;;34.35;12.15;;;;;;;-4.21;86.53;101420.27;1617173;88;21059;-76
2022/12/19 04:33:40;;;;;;;34.13;14.03;;;;;;;-4.21;86.34;101413.05;1618291;88;21025;-76
2022/12/19 04:36:07;;;;;;;34.00;11.68;;;;;;;-4.19;86.59;101407.69;1618277;88;21021;-76
2022/12/19 04:38:33;;;;;;;41.15;13.03;;;;;;;-4.20;86.40;101418.24;1618214;88;21044;-76
2022/12/19 04:41:00;;;;;;;39.03;13.62;;;;;;;-4.20;86.19;101423.69;1618258;89;21505;-76
2022/12/19 04:43:27;;;;;;;41.13;13.80;;;;;;;-4.19;86.30;101419.11;1618338;88;21025;-76
2022/12/19 04:45:53;;;;;;;36.00;13.53;;;;;;;-4.18;86.21;101419.98;1618212;88;21057;-76
2022/12/19 04:48:19;;;;;;;30.57;12.75;;;;;;;-4.20;86.05;101423.33;1618166;87;21132;-76
2022/12/19 04:50:46;;;;;;;36.88;13.45;;;;;;;-4.19;86.08;101424.20;1618245;88;21057;-76
2022/12/19 04:53:12;;;;;;;34.58;13.10;;;;;;;-4.17;85.85;101429.39;1618326;88;21033;-76
2022/12/19 04:55:40;;;;;;;35.95;11.60;;;;;;;-4.21;86.03;101421.54;1618307;89;21502;-76
2022/12/19 04:58:07;;;;;;;34.98;12.82;;;;;;;-4.22;85.82;101422.33;1618364;89;21044;-76
2022/12/19 05:00:34;;;;;;;29.42;12.90;;;;;;;-4.24;86.00;101425.15;1618425;89;21033;-76
2022/12/19 05:03:00;;;;;;;35.63;14.33;;;;;;;-4.23;86.10;101428.17;1617705;87;21564;-76
2022/12/19 05:05:27;;;;;;;57.17;20.65;;;;;;;-4.20;85.90;101428.77;1608865;89;21064;-76
2022/12/19 05:07:54;;;;;;;63.63;23.45;;;;;;;-4.21;85.56;101432.97;1608395;89;21064;-76
2022/12/19 05:10:21;;;;;;;56.80;21.70;;;;;;;-4.25;85.90;101439.88;1608443;88;21112;-76
2022/12/19 05:12:47;;;;;;;58.05;19.87;;;;;;;-4.22;85.65;101435.03;1608383;88;21120;-76
2022/12/19 05:15:15;;;;;;;53.08;19.05;;;;;;;-4.24;85.89;101441.66;1608334;89;21044;-76
2022/12/19 05:17:43;;;;;;;49.20;17.27;;;;;;;-4.22;86.19;101441.74;1609040;89;21164;-77
2022/12/19 05:20:10;;;;;;;47.90;17.42;;;;;;;-4.20;86.07;101447.81;1609206;89;21077;-76
2022/12/19 05:22:36;;;;;;;43.80;15.53;;;;;;;-4.27;86.21;101455.79;1609527;88;21612;-75
2022/12/19 05:25:04;;;;;;;38.53;13.60;;;;;;;-4.29;86.43;101454.40;1601165;89;21007;-76
2022/12/19 05:27:31;;;;;;;40.20;14.28;;;;;;;-4.30;86.49;101454.28;1584181;90;21007;-76
2022/12/19 05:29:58;;;;;;;41.50;11.50;;;;;;;-4.29;86.23;101458.20;1584009;90;21039;-76
2022/12/19 05:32:24;;;;;;;54.20;13.53;;;;;;;-4.29;85.89;101465.83;1583946;90;21026;-76
2022/12/19 05:34:50;;;;;;;39.83;13.95;;;;;;;-4.35;86.01;101464.12;1582996;90;21098;-76
2022/12/19 05:37:17;;;;;;;36.80;12.28;;;;;;;-4.39;85.81;101467.20;1583107;90;21023;-77
2022/12/19 05:39:43;;;;;;;45.80;13.10;;;;;;;-4.41;86.00;101471.30;1592019;89;21060;-76
2022/12/19 05:42:10;;;;;;;34.53;12.58;;;;;;;-4.41;85.90;101472.56;1608271;89;21560;-76
2022/12/19 05:44:36;;;;;;;47.38;14.87;;;;;;;-4.45;85.92;101473.98;1608218;89;21084;-76
2022/12/19 05:47:03;;;;;;;46.25;12.90;;;;;;;-4.46;86.14;101475.14;1608349;89;21091;-76
2022/12/19 05:49:29;;;;;;;36.73;14.65;;;;;;;-4.46;86.22;101478.55;1607993;88;21115;-76
2022/12/19 05:51:56;;;;;;;38.75;14.90;;;;;;;-4.47;86.13;101468.30;1607987;89;21083;-76
2022/12/19 05:54:23;;;;;;;36.98;15.23;;;;;;;-4.41;85.96;101484.86;1586353;89;22246;-76
2022/12/19 05:56:49;;;;;;;40.20;15.53;;;;;;;-4.44;86.04;101476.13;1593651;89;21260;-76
2022/12/19 05:59:16;;;;;;;49.45;18.20;;;;;;;-4.47;86.03;101479.34;1595351;89;21109;-76
2022/12/19 06:01:42;;;;;;;28.83;12.37;;;;;;;-4.43;86.20;101484.27;1606772;89;21029;-76
2022/12/19 06:04:09;;;;;;;33.23;13.68;;;;;;;-4.38;86.26;101476.97;1604345;89;21064;-76
2022/12/19 06:06:36;;;;;;;38.63;14.00;;;;;;;-4.37;86.05;101480.03;1607550;89;21104;-76
2022/12/19 06:09:03;;;;;;;36.70;13.53;;;;;;;-4.37;86.20;101473.67;1609594;88;21040;-76
2022/12/19 06:11:29;;;;;;;43.80;15.03;;;;;;;-4.32;86.36;101476.14;1609576;89;21053;-75
2022/12/19 06:13:56;;;;;;;51.68;16.32;;;;;;;-4.31;86.37;101476.27;1612464;88;21064;-76
2022/12/19 06:16:22;;;;;;;45.08;17.00;;;;;;;-4.27;86.46;101474.44;1609461;89;21060;-76
2022/12/19 06:18:49;;;;;;;38.48;14.15;;;;;;;-4.22;86.46;101468.05;1615315;88;21056;-76
2022/12/19 06:21:19;;;;;;;41.45;15.25;;;;;;;-4.18;86.07;101467.86;1602421;89;21036;-76
2022/12/19 06:23:47;;;;;;;65.17;18.05;;;;;;;-4.22;86.10;101471.86;1617468;88;21028;-76
2022/12/19 06:26:18;;;;;;;43.52;16.15;;;;;;;-4.20;86.39;101469.41;1603550;89;21013;-76
2022/12/19 06:28:44;;;;;;;43.83;13.80;;;;;;;-4.20;86.44;101472.86;1607660;87;22021;-76
2022/12/19 06:31:11;;;;;;;36.30;12.80;;;;;;;-4.19;86.35;101469.92;1623014;86;20984;-77
2022/12/19 06:33:38;;;;;;;33.23;13.58;;;;;;;-4.14;86.30;101467.30;1636126;86;21024;-76
2022/12/19 06:36:28;;;;;;;40.65;13.95;;;;;;;-4.10;86.07;101473.50;1635897;86;21011;-76
2022/12/19 06:38:57;;;;;;;38.40;14.50;;;;;;;-4.06;86.41;101473.85;1639079;86;20955;-76
2022/12/19 06:44:13;;;;;;;37.28;12.88;;;;;;;-4.00;86.19;101474.65;1635839;86;21016;-76
2022/12/19 06:46:40;;;;;;;44.40;15.23;;;;;;;-3.96;86.07;101478.30;1635231;87;20987;-77
2022/12/19 06:49:07;;;;;;;40.60;15.72;;;;;;;-3.96;86.19;101478.30;1613072;87;21631;-76
2022/12/19 06:51:34;;;;;;;36.15;12.55;;;;;;;-3.93;86.29;101483.22;1638432;86;21004;-76
2022/12/19 06:54:01;;;;;;;46.70;17.98;;;;;;;-3.89;86.12;101483.94;1608625;87;21082;-76
2022/12/19 06:56:33;;;;;;;33.60;14.75;;;;;;;-3.91;85.73;101489.30;1632105;86;21027;-76
2022/12/19 06:59:00;;;;;;;32.10;13.50;;;;;;;-3.91;85.82;101486.75;1634348;87;20999;-77
2022/12/19 07:01:55;;;;;;;37.88;12.45;;;;;;;-3.91;85.36;101502.00;1633710;87;21114;-76
2022/12/19 07:04:32;;;;;;;40.08;13.45;;;;;;;-3.91;85.52;101499.85;1626976;86;21050;-76
2022/12/19 07:07:00;;;;;;;48.52;17.70;;;;;;;-3.97;85.57;101502.84;1625227;86;21056;-77
2022/12/19 07:09:28;;;;;;;44.58;14.47;;;;;;;-4.02;85.58;101491.08;1624276;86;21086;-75
2022/12/19 07:11:55;;;;;;;38.95;13.95;;;;;;;-3.94;85.70;101502.16;1627780;86;21032;-76
2022/12/19 07:14:22;;;;;;;36.00;13.08;;;;;;;-3.88;85.91;101497.52;1627673;86;21078;-76
2022/12/19 07:16:52;;;;;;;33.95;12.85;;;;;;;-3.77;86.01;101494.48;1624951;86;21043;-76
2022/12/19 07:19:20;;;;;;;42.85;13.43;;;;;;;-3.69;85.80;101496.78;1627232;86;22210;-76
2022/12/19 07:21:47;;;;;;;34.27;12.78;;;;;;;-3.61;85.69;101495.66;1601338;87;21024;-76
2022/12/19 07:24:14;;;;;;;38.95;14.53;;;;;;;-3.53;85.30;101501.68;1607826;88;21081;-77
2022/12/19 07:26:43;;;;;;;41.48;13.53;;;;;;;-3.44;85.50;101497.25;1624552;88;21612;-76
2022/12/19 07:29:11;;;;;;;45.92;15.32;;;;;;;-3.46;85.33;101497.14;1625002;87;21058;-77
2022/12/19 07:31:37;;;;;;;49.53;15.18;;;;;;;-3.41;84.99;101502.53;1625680;86;21023;-77
2022/12/19 07:34:04;;;;;;;37.85;12.93;;;;;;;-3.38;84.97;101505.30;1623615;86;21085;-76
2022/12/19 07:36:30;;;;;;;40.43;13.53;;;;;;;-3.33;84.97;101514.12;1626821;86;21063;-76
2022/12/19 07:38:57;;;;;;;38.15;12.75;;;;;;;-3.32;84.70;101509.91;1624612;86;21101;-76
2022/12/19 07:41:23;;;;;;;34.67;13.28;;;;;;;-3.30;84.79;101506.72;1628317;86;21040;-77
2022/12/19 07:43:50;;;;;;;47.90;14.40;;;;;;;-3.27;84.74;101514.94;1620293;86;21028;-76
2022/12/19 07:46:16;;;;;;;38.53;13.60;;;;;;;-3.22;84.71;101503.03;1628616;86;21512;-76
2022/12/19 07:48:43;;;;;;;45.25;16.80;;;;;;;-3.22;84.81;101505.58;1626486;86;21343;-76
2022/12/19 07:51:09;;;;;;;37.75;14.65;;;;;;;-3.24;84.63;101503.32;1623707;86;21562;-76
2022/12/19 07:53:36;;;;;;;37.98;13.95;;;;;;;-3.22;84.70;101501.77;1622788;87;21092;-76
2022/12/19 07:56:02;;;;;;;40.45;13.58;;;;;;;-3.21;84.91;101504.78;1626169;88;21056;-76
2022/12/19 07:58:30;;;;;;;42.27;15.23;;;;;;;-3.19;84.71;101503.63;1627783;87;22008;-76
2022/12/19 08:00:59;;;;;;;36.23;13.38;;;;;;;-3.13;84.84;101500.22;1625167;88;21052;-76
2022/12/19 08:03:27;;;;;;;39.88;15.20;;;;;;;-3.14;84.75;101502.30;1625176;86;21059;-76
2022/12/19 08:06:03;;;;;;;44.73;15.03;;;;;;;-3.11;85.07;101505.03;1629385;86;21070;-76
2022/12/19 08:08:30;;;;;;;36.20;14.38;;;;;;;-3.04;85.06;101510.17;1635221;86;21075;-76
2022/12/19 08:11:10;;;;;;;29.72;10.78;;;;;;;-2.94;84.90;101501.50;1631357;87;21043;-75
2022/12/19 08:13:37;;;;;;;34.95;12.63;;;;;;;-2.90;84.34;101500.53;1633360;86;21010;-78
2022/12/19 08:16:04;;;;;;;35.33;12.30;;;;;;;-2.83;84.61;101503.09;1612693;87;21055;-76
2022/12/19 08:18:31;;;;;;;35.95;11.38;;;;;;;-2.75;84.24;101504.48;1635315;86;21151;-76
2022/12/19 08:20:57;;;;;;;33.02;12.25;;;;;;;-2.71;84.04;101503.91;1622369;86;21386;-76
2022/12/19 08:23:24;;;;;;;28.17;11.30;;;;;;;-2.66;83.82;101510.60;1629974;87;21555;-76
2022/12/19 08:26:01;;;;;;;37.95;12.28;;;;;;;-2.65;83.63;101514.89;1632146;87;21091;-76
2022/12/19 08:28:27;;;;;;;31.87;11.85;;;;;;;-2.62;83.41;101514.72;1627720;87;21590;-76
2022/12/19 08:30:53;;;;;;;36.80;12.53;;;;;;;-2.51;83.69;101525.60;1620448;87;21063;-76
2022/12/19 08:33:20;;;;;;;34.15;11.20;;;;;;;-2.51;83.48;101527.27;1626293;87;21337;-76
2022/12/19 08:35:47;;;;;;;33.80;11.73;;;;;;;-2.47;83.52;101523.75;1636069;87;21647;-76
2022/12/19 08:38:13;;;;;;;39.75;13.43;;;;;;;-2.42;83.44;101516.44;1625010;87;21031;-76
2022/12/19 08:40:39;;;;;;;43.98;12.13;;;;;;;-2.44;83.55;101516.33;1637879;87;21023;-75
2022/12/19 08:43:06;;;;;;;28.85;12.25;;;;;;;-2.36;83.32;101524.48;1627006;87;21024;-76
2022/12/19 08:45:32;;;;;;;28.00;11.55;;;;;;;-2.36;83.09;101528.30;1623953;87;21055;-76
2022/12/19 08:47:58;;;;;;;32.98;13.28;;;;;;;-2.27;83.47;101526.37;1633803;87;22117;-76
2022/12/19 08:50:25;;;;;;;29.15;11.70;;;;;;;-2.26;83.46;101524.30;1622120;87;21051;-76
2022/12/19 08:52:51;;;;;;;37.95;13.40;;;;;;;-2.22;83.33;101518.61;1631373;87;21494;-76
2022/12/19 08:55:18;;;;;;;36.03;11.90;;;;;;;-2.22;83.56;101526.66;1600578;87;21102;-76
2022/12/19 08:57:47;;;;;;;32.60;11.75;;;;;;;-2.17;83.58;101520.58;1631346;87;21167;-76
2022/12/19 09:00:15;;;;;;;35.80;12.33;;;;;;;-2.19;83.54;101524.30;1623741;87;22313;-76
2022/12/19 09:02:42;;;;;;;34.60;12.43;;;;;;;-2.17;83.69;101518.03;1635078;87;21032;-74
2022/12/19 09:05:09;;;;;;;33.40;13.22;;;;;;;-2.12;83.74;101517.55;1625269;87;21119;-76
2022/12/19 09:07:35;;;;;;;43.68;13.45;;;;;;;-2.06;83.97;101512.84;1634754;87;21166;-75
2022/12/19 09:10:02;;;;;;;39.08;12.65;;;;;;;-1.98;83.67;101515.02;1623688;87;21100;-76
2022/12/19 09:12:29;;;;;;;49.18;14.65;;;;;;;-1.94;83.53;101506.38;1633210;87;21083;-76
2022/12/19 09:14:56;;;;;;;45.63;14.13;;;;;;;-1.95;83.19;101507.18;1632838;87;22012;-76
2022/12/19 09:17:22;;;;;;;45.25;15.10;;;;;;;-1.92;83.69;101500.98;1636975;86;21107;-76
2022/12/19 09:19:48;;;;;;;36.93;13.53;;;;;;;-1.86;83.53;101494.99;1628731;87;21099;-76
2022/12/19 09:22:15;;;;;;;37.13;14.68;;;;;;;-1.84;83.31;101488.33;1629824;87;21587;-76
2022/12/19 09:24:42;;;;;;;45.45;16.93;;;;;;;-1.80;83.51;101487.73;1629741;87;21016;-76
2022/12/19 09:27:08;;;;;;;42.15;13.38;;;;;;;-1.75;83.41;101493.14;1629608;87;21104;-76
2022/12/19 09:29:35;;;;;;;37.40;13.00;;;;;;;-1.71;83.21;101498.92;1629481;87;21607;-75
2022/12/19 09:32:01;;;;;;;42.78;12.58;;;;;;;-1.66;82.95;101494.97;1631511;87;21051;-76
2022/12/19 09:34:28;;;;;;;40.35;13.05;;;;;;;-1.68;83.11;101485.06;1630371;87;21012;-76
2022/12/19 09:36:54;;;;;;;33.38;13.50;;;;;;;-1.62;83.09;101481.62;1628700;87;21096;-76
2022/12/19 09:39:21;;;;;;;48.25;15.25;;;;;;;-1.55;83.03;101477.80;1634267;87;21051;-76
2022/12/19 09:42:02;;;;;;;39.75;14.28;;;;;;;-1.52;82.84;101476.70;1635083;87;21559;-76
2022/12/19 09:44:43;;;;;;;38.85;14.63;;;;;;;-1.49;82.60;101480.73;1635792;87;21119;-75
2022/12/19 09:47:23;;;;;;;47.53;16.73;;;;;;;-1.48;82.71;101477.77;1627305;87;21103;-76
2022/12/19 09:49:52;;;;;;;43.28;15.38;;;;;;;-1.45;82.54;101473.75;1605780;87;21023;-76
2022/12/19 09:52:39;;;;;;;48.08;15.58;;;;;;;-1.42;82.48;101473.05;1625962;87;21055;-76
2022/12/19 09:55:29;;;;;;;46.68;15.15;;;;;;;-1.38;82.55;101472.84;1634196;87;21071;-76
2022/12/19 09:58:35;;;;;;;39.03;14.68;;;;;;;-1.35;82.77;101475.20;1614452;87;21120;-77
2022/12/19 10:01:10;;;;;;;53.73;16.35;;;;;;;-1.28;82.64;101478.99;1597079;87;21123;-77
2022/12/19 10:03:41;;;;;;;39.58;14.38;;;;;;;-1.26;83.05;101471.03;1637390;87;21055;-75
2022/12/19 10:06:22;;;;;;;45.40;16.60;;;;;;;-1.18;82.90;101472.38;1644852;86;21059;-76
2022/12/19 10:08:51;;;;;;;49.55;18.20;;;;;;;-1.16;83.02;101460.58;1642514;86;21028;-77
2022/12/19 10:11:35;;;;;;;46.92;16.37;;;;;;;-1.07;82.83;101452.62;1656627;86;20992;-76
2022/12/19 10:14:09;;;;;;;39.55;14.05;;;;;;;-1.02;83.25;101452.47;1642548;86;21039;-75
2022/12/19 10:16:56;;;;;;;45.20;15.95;;;;;;;-0.93;82.88;101450.48;1656320;86;21051;-76
2022/12/19 10:19:55;;;;;;;38.15;13.90;;;;;;;-0.87;82.86;101448.28;1642894;86;21015;-76
2022/12/19 10:22:33;;;;;;;41.73;16.00;;;;;;;-0.85;82.59;101443.27;1659557;86;21040;-76
2022/12/19 10:25:31;;;;;;;45.50;15.60;;;;;;;-0.75;82.70;101439.58;1659790;86;21617;-75
2022/12/19 10:28:41;;;;;;;38.08;14.93;;;;;;;-0.69;82.78;101439.53;1651586;86;21044;-76
2022/12/19 10:31:18;;;;;;;46.50;17.02;;;;;;;-0.58;82.68;101436.30;1654535;86;21075;-77
2022/12/19 10:33:59;;;;;;;43.23;15.05;;;;;;;-0.46;82.46;101434.47;1650607;86;20953;-76
2022/12/19 10:36:26;;;;;;;47.30;15.78;;;;;;;-0.46;81.43;101430.64;1656983;86;21063;-77
2022/12/19 10:39:03;;;;;;;46.98;16.80;;;;;;;-0.40;81.63;101422.41;1649836;86;21004;-76
2022/12/19 10:41:32;;;;;;;46.95;15.15;;;;;;;-0.44;81.60;101423.94;1656024;86;21087;-76
2022/12/19 10:44:02;;;;;;;52.58;17.77;;;;;;;-0.40;81.79;101422.41;1642532;86;21066;-76
2022/12/19 10:46:48;;;;;;;40.65;16.00;;;;;;;-0.31;82.18;101426.77;1656597;86;21375;-76
2022/12/19 10:49:22;;;;;;;49.03;17.73;;;;;;;-0.21;82.17;101425.21;1645130;86;21024;-76
2022/12/19 10:51:59;;;;;;;56.23;16.37;;;;;;;-0.17;81.34;101427.95;1658480;86;21576;-76
2022/12/19 10:54:38;;;;;;;49.42;18.25;;;;;;;-0.11;81.99;101424.45;1651674;86;21028;-76
2022/12/19 10:57:28;;;;;;;43.55;15.15;;;;;;;-0.01;81.93;101413.93;1641052;86;21016;-76
2022/12/19 11:00:02;;;;;;;50.08;17.00;;;;;;;0.11;81.82;101412.03;1649881;86;21626;-76
2022/12/19 11:02:50;;;;;;;34.10;13.55;;;;;;;0.19;81.69;101410.77;1657914;86;21500;-76
2022/12/19 11:05:43;;;;;;;44.20;15.75;;;;;;;0.27;81.06;101409.03;1645319;86;21051;-77
2022/12/19 11:08:21;;;;;;;46.67;16.43;;;;;;;0.29;81.06;101404.88;1579740;86;21027;-76
2022/12/19 11:10:52;;;;;;;43.85;14.83;;;;;;;0.34;81.08;101401.77;1647778;86;21580;-76
2022/12/19 11:13:46;;;;;;;36.75;13.28;;;;;;;0.43;80.74;101408.17;1660731;86;21708;-77
2022/12/19 11:16:24;;;;;;;36.23;13.88;;;;;;;0.42;80.34;101403.46;1640251;86;20984;-75
2022/12/19 11:18:51;;;;;;;39.73;14.65;;;;;;;0.48;80.12;101399.94;1651663;86;20985;-75
2022/12/19 11:21:28;;;;;;;40.65;13.50;;;;;;;0.49;80.26;101404.24;1652663;86;20956;-76
2022/12/19 11:24:02;;;;;;;41.68;16.48;;;;;;;0.55;80.38;101399.85;1648898;86;21469;-76
2022/12/19 11:26:48;;;;;;;36.60;12.98;;;;;;;0.51;79.12;101400.49;1648870;86;20996;-76
2022/12/19 11:29:25;;;;;;;45.30;16.48;;;;;;;0.52;79.82;101406.98;1653548;86;21740;-76
2022/12/19 11:32:00;;;;;;;32.38;13.65;;;;;;;0.67;80.08;101406.02;1635599;86;20996;-77
2022/12/19 11:34:30;;;;;;;41.40;16.35;;;;;;;0.67;79.13;101396.64;1660576;86;21461;-76
2022/12/19 11:37:22;;;;;;;40.55;15.03;;;;;;;0.75;79.21;101395.35;1649538;86;21024;-76
2022/12/19 11:40:16;;;;;;;37.15;13.58;;;;;;;0.84;79.04;101390.25;1658120;86;21429;-77